createdAt,value
2018-08-16T00:02:28.197Z,5.20
2018-08-16T00:04:57.325Z,4.40
2018-08-16T00:07:26.444Z,5.43
2018-08-16T00:09:55.841Z,5.07
2018-08-16T00:12:27.277Z,5.20
2018-08-16T00:14:56.593Z,5.03
2018-08-16T00:17:26.033Z,4.77
2018-08-16T00:19:55.461Z,4.70
2018-08-16T00:22:25.830Z,4.93
2018-08-16T00:24:55.129Z,4.97
2018-08-16T00:27:24.550Z,5.13
2018-08-16T00:29:53.917Z,4.57
2018-08-16T00:32:27.921Z,4.87
2018-08-16T00:34:57.778Z,5.70
2018-08-16T00:37:27.385Z,5.30
2018-08-16T00:39:56.718Z,5.43
2018-08-16T00:42:35.632Z,4.77
2018-08-16T00:45:06.921Z,5.20
2018-08-16T00:47:36.129Z,4.87
2018-08-16T00:50:09.185Z,5.77
2018-08-16T00:52:38.593Z,5.40
2018-08-16T00:55:09.529Z,5.47
2018-08-16T00:57:39.204Z,5.13
2018-08-16T01:00:14.802Z,5.20
2018-08-16T01:02:44.612Z,5.23
2018-08-16T01:05:14.086Z,5.87
2018-08-16T01:07:43.988Z,5.87
2018-08-16T01:10:14.145Z,5.10
2018-08-16T01:12:44.178Z,5.00
2018-08-16T01:15:16.758Z,4.97
2018-08-16T01:17:46.180Z,5.03
2018-08-16T01:20:15.585Z,4.73
2018-08-16T01:22:44.890Z,6.00
2018-08-16T01:25:14.234Z,5.30
2018-08-16T01:27:43.565Z,5.53
2018-08-16T01:30:12.961Z,5.40
2018-08-16T01:32:42.325Z,4.80
2018-08-16T01:35:11.974Z,5.27
2018-08-16T01:37:41.369Z,5.10
2018-08-16T01:40:10.702Z,4.67
2018-08-16T01:42:40.466Z,5.00
2018-08-16T01:45:10.497Z,5.47
2018-08-16T01:47:40.072Z,5.30
2018-08-16T01:50:09.401Z,5.17
2018-08-16T01:52:38.777Z,5.80
2018-08-16T01:55:08.904Z,5.47
2018-08-16T01:57:38.205Z,5.93
2018-08-16T02:00:09.864Z,5.40
2018-08-16T02:02:39.292Z,5.50
2018-08-16T02:05:08.978Z,6.20
2018-08-16T02:07:38.013Z,5.50
2018-08-16T02:10:08.117Z,4.93
2018-08-16T02:12:37.232Z,6.00
2018-08-16T02:15:09.925Z,5.33
2018-08-16T02:17:39.211Z,5.97
2018-08-16T02:20:11.054Z,5.27
2018-08-16T02:22:40.761Z,5.10
2018-08-16T02:25:10.164Z,5.57
2018-08-16T02:27:39.638Z,5.73
2018-08-16T02:30:10.009Z,5.40
2018-08-16T02:32:39.861Z,5.60
2018-08-16T02:35:09.497Z,5.97
2018-08-16T02:37:38.866Z,5.93
2018-08-16T02:40:09.097Z,5.60
2018-08-16T02:42:38.629Z,5.37
2018-08-16T02:45:08.024Z,5.87
2018-08-16T02:47:37.417Z,5.67
2018-08-16T02:50:07.049Z,5.73
2018-08-16T02:53:00.228Z,5.80
2018-08-16T02:55:29.614Z,5.40
2018-08-16T02:57:59.136Z,5.03
2018-08-16T03:00:32.585Z,5.77
2018-08-16T03:03:01.917Z,6.00
2018-08-16T03:05:31.425Z,5.57
2018-08-16T03:08:00.774Z,6.03
2018-08-16T03:10:38.326Z,6.00
2018-08-16T03:13:07.645Z,6.20
2018-08-16T03:15:36.997Z,5.80
2018-08-16T03:18:06.353Z,5.37
2018-08-16T03:20:40.018Z,5.87
2018-08-16T03:23:09.477Z,5.70
2018-08-16T03:25:38.881Z,5.70
2018-08-16T03:28:08.213Z,5.57
2018-08-16T03:30:40.963Z,5.97
2018-08-16T03:33:10.411Z,5.53
2018-08-16T03:35:39.696Z,6.13
2018-08-16T03:38:08.824Z,6.13
2018-08-16T03:40:48.474Z,13.50
2018-08-16T03:43:17.862Z,6.47
2018-08-16T03:45:47.269Z,5.80
2018-08-16T03:48:16.657Z,6.10
2018-08-16T03:50:47.104Z,5.60
2018-08-16T03:53:16.621Z,5.50
2018-08-16T03:55:45.919Z,5.80
2018-08-16T03:58:15.225Z,5.50
2018-08-16T04:01:10.956Z,5.90
2018-08-16T04:03:40.358Z,6.10
2018-08-16T04:06:09.766Z,6.07
2018-08-16T04:08:39.141Z,6.23
2018-08-16T04:11:08.701Z,5.90
2018-08-16T04:13:38.145Z,5.83
2018-08-16T04:16:07.534Z,6.30
2018-08-16T04:18:36.853Z,5.67
2018-08-16T04:21:08.261Z,6.50
2018-08-16T04:23:37.709Z,6.80
2018-08-16T04:26:07.021Z,5.83
2018-08-16T04:28:37.497Z,6.10
2018-08-16T04:31:06.897Z,6.20
2018-08-16T04:33:36.301Z,6.37
2018-08-16T04:36:05.601Z,5.97
2018-08-16T04:38:34.999Z,6.17
2018-08-16T04:41:09.969Z,5.80
2018-08-16T04:43:39.325Z,6.33
2018-08-16T04:46:08.750Z,6.90
2018-08-16T04:48:38.220Z,5.43
2018-08-16T04:51:33.548Z,6.70
2018-08-16T04:54:02.909Z,6.00
2018-08-16T04:56:32.401Z,6.00
2018-08-16T04:59:01.777Z,6.00
2018-08-16T05:01:32.218Z,6.43
2018-08-16T05:04:01.579Z,6.47
2018-08-16T05:06:30.989Z,6.87
2018-08-16T05:09:00.377Z,7.03
2018-08-16T05:11:51.594Z,7.90
2018-08-16T05:14:20.909Z,7.83
2018-08-16T05:16:50.276Z,7.17
2018-08-16T05:19:19.669Z,7.70
2018-08-16T05:21:49.085Z,7.27
2018-08-16T05:24:18.397Z,7.27
2018-08-16T05:26:47.833Z,8.00
2018-08-16T05:29:17.261Z,7.80
2018-08-16T05:31:52.062Z,7.60
2018-08-16T05:34:21.375Z,8.03
2018-08-16T05:36:50.761Z,7.43
2018-08-16T05:39:20.217Z,7.60
2018-08-16T05:41:59.429Z,7.60
2018-08-16T05:44:28.802Z,7.63
2018-08-16T05:46:58.238Z,7.87
2018-08-16T05:49:27.628Z,7.97
2018-08-16T05:51:57.002Z,7.80
2018-08-16T05:54:26.117Z,7.40
2018-08-16T05:56:55.433Z,8.23
2018-08-16T05:59:24.882Z,8.07
2018-08-16T06:01:53.988Z,7.97
2018-08-16T06:04:23.404Z,7.10
2018-08-16T06:06:53.640Z,8.07
2018-08-16T06:09:22.714Z,7.20
2018-08-16T06:11:54.140Z,7.03
2018-08-16T06:14:23.446Z,7.43
2018-08-16T06:16:52.773Z,6.93
2018-08-16T06:19:22.198Z,7.83
2018-08-16T06:22:05.601Z,6.93
2018-08-16T06:24:34.980Z,6.77
2018-08-16T06:27:04.348Z,6.57
2018-08-16T06:29:33.805Z,7.90
2018-08-16T06:32:03.292Z,6.80
2018-08-16T06:34:32.690Z,7.47
2018-08-16T06:37:02.045Z,7.60
2018-08-16T06:39:31.130Z,7.00
2018-08-16T06:42:01.566Z,7.43
2018-08-16T06:44:31.045Z,7.23
2018-08-16T06:47:00.433Z,7.17
2018-08-16T06:49:29.825Z,7.30
2018-08-16T06:52:01.185Z,6.70
2018-08-16T06:54:30.566Z,7.17
2018-08-16T06:56:59.934Z,7.83
2018-08-16T06:59:29.281Z,7.50
2018-08-16T07:02:03.561Z,7.03
2018-08-16T07:04:32.979Z,6.77
2018-08-16T07:07:02.463Z,7.00
2018-08-16T07:09:31.829Z,6.90
2018-08-16T07:12:02.285Z,6.83
2018-08-16T07:14:31.650Z,6.77
2018-08-16T07:17:01.037Z,7.00
2018-08-16T07:19:30.449Z,6.53
2018-08-16T07:22:00.870Z,7.20
2018-08-16T07:24:30.242Z,7.20
2018-08-16T07:26:59.646Z,7.10
2018-08-16T07:29:29.038Z,5.80
2018-08-16T07:32:03.009Z,5.13
2018-08-16T07:34:32.685Z,5.33
2018-08-16T07:37:02.033Z,5.53
2018-08-16T07:39:31.341Z,4.53
2018-08-16T07:42:01.773Z,4.87
2018-08-16T07:44:31.934Z,5.50
2018-08-16T07:47:01.290Z,4.93
2018-08-16T07:49:30.452Z,5.17
2018-08-16T07:51:59.764Z,5.67
2018-08-16T07:54:29.181Z,4.87
2018-08-16T07:56:58.825Z,5.27
2018-08-16T07:59:28.175Z,5.53
2018-08-16T08:01:57.652Z,5.20
2018-08-16T08:04:27.182Z,5.37
2018-08-16T08:06:56.269Z,5.63
2018-08-16T08:09:25.714Z,5.07
2018-08-16T08:11:58.701Z,5.60
2018-08-16T08:14:28.052Z,4.80
2018-08-16T08:16:57.519Z,5.20
2018-08-16T08:19:26.965Z,4.93
2018-08-16T08:21:56.317Z,4.63
2018-08-16T08:24:25.844Z,4.73
2018-08-16T08:26:55.221Z,5.27
2018-08-16T08:29:24.281Z,4.40
2018-08-16T08:31:54.605Z,4.63
2018-08-16T08:34:23.986Z,5.30
2018-08-16T08:37:10.185Z,4.70
2018-08-16T08:39:39.567Z,4.85
2018-08-16T08:42:09.024Z,4.75
2018-08-16T08:44:38.412Z,4.90
2018-08-16T08:47:07.859Z,4.00
2018-08-16T08:49:37.322Z,4.67
2018-08-16T08:52:19.357Z,4.60
2018-08-16T08:55:05.514Z,4.58
2018-08-16T08:57:45.597Z,3.60
2018-08-16T09:00:14.673Z,3.92
2018-08-16T09:02:43.989Z,3.98
2018-08-16T09:05:13.938Z,3.47
2018-08-16T09:07:43.629Z,3.60
2018-08-16T09:11:27.697Z,3.83
2018-08-16T09:14:13.943Z,3.55
2018-08-16T09:16:43.289Z,4.00
2018-08-16T09:19:13.006Z,3.77
2018-08-16T09:21:48.288Z,3.80
2018-08-16T09:24:17.360Z,3.30
2018-08-16T09:26:46.713Z,3.47
2018-08-16T09:42:26.239Z,3.62
2018-08-16T09:45:12.295Z,2.85
2018-08-16T09:47:58.329Z,3.20
2018-08-16T09:50:53.030Z,3.17
2018-08-16T09:53:22.545Z,3.10
2018-08-16T09:55:51.815Z,2.70
2018-08-16T09:58:21.201Z,3.17
2018-08-16T10:00:56.822Z,2.50
2018-08-16T10:03:26.153Z,2.72
2018-08-16T10:05:55.482Z,2.98
2018-08-16T10:08:24.834Z,2.83
2018-08-16T10:10:54.233Z,3.10
2018-08-16T10:13:23.774Z,3.05
2018-08-16T10:15:53.114Z,2.02
2018-08-16T10:18:22.529Z,2.50
2018-08-16T10:21:01.020Z,2.22
2018-08-16T10:23:29.947Z,2.52
2018-08-16T10:25:59.452Z,2.27
2018-08-16T10:28:28.874Z,2.83
2018-08-16T10:31:17.498Z,2.42
2018-08-16T10:33:46.913Z,1.95
2018-08-16T10:36:16.309Z,2.12
2018-08-16T10:38:45.693Z,2.70
2018-08-16T10:41:15.069Z,2.33
2018-08-16T10:43:44.441Z,2.90
2018-08-16T10:46:13.910Z,2.65
2018-08-16T10:48:43.322Z,2.17
2018-08-16T10:51:33.344Z,2.15
2018-08-16T10:54:02.393Z,2.62
2018-08-16T10:56:31.460Z,2.30
2018-08-16T10:59:00.790Z,2.33
2018-08-16T11:01:36.197Z,2.12
2018-08-16T11:04:05.858Z,2.17
2018-08-16T11:06:35.158Z,2.60
2018-08-16T11:09:07.397Z,2.27
2018-08-16T11:11:38.471Z,2.17
2018-08-16T11:14:07.845Z,2.30
2018-08-16T11:16:37.157Z,2.10
2018-08-16T11:19:06.513Z,1.90
2018-08-16T11:21:35.890Z,2.10
2018-08-16T11:24:05.328Z,2.05
2018-08-16T11:26:34.720Z,2.00
2018-08-16T11:29:04.175Z,2.12
2018-08-16T11:31:34.568Z,2.10
2018-08-16T11:34:03.968Z,2.15
2018-08-16T11:36:33.389Z,2.00
2018-08-16T11:39:02.902Z,2.00
2018-08-16T11:41:35.566Z,2.30
2018-08-16T11:44:05.126Z,2.33
2018-08-16T11:46:34.537Z,2.17
2018-08-16T11:49:03.526Z,2.65
2018-08-16T11:51:34.091Z,2.40
2018-08-16T11:54:03.477Z,3.05
2018-08-16T11:56:32.841Z,2.50
2018-08-16T11:59:02.193Z,2.65
2018-08-16T12:01:43.876Z,2.70
2018-08-16T12:04:13.301Z,2.58
2018-08-16T12:06:42.707Z,2.58
2018-08-16T12:09:12.074Z,2.72
2018-08-16T12:11:45.823Z,2.65
2018-08-16T12:14:15.282Z,2.58
2018-08-16T12:16:44.653Z,2.77
2018-08-16T12:19:14.048Z,2.47
2018-08-16T12:21:44.445Z,2.20
2018-08-16T12:24:13.821Z,2.22
2018-08-16T12:26:43.485Z,2.45
2018-08-16T12:29:12.880Z,2.80
2018-08-16T12:31:59.385Z,2.60
2018-08-16T12:34:28.701Z,2.80
2018-08-16T12:36:58.176Z,2.33
2018-08-16T12:39:27.718Z,2.17
2018-08-16T12:42:04.965Z,2.45
2018-08-16T12:44:34.346Z,2.55
2018-08-16T12:47:03.746Z,2.72
2018-08-16T12:49:33.057Z,2.30
2018-08-16T12:52:02.440Z,2.77
2018-08-16T12:54:31.902Z,2.62
2018-08-16T12:57:01.273Z,2.72
2018-08-16T12:59:30.649Z,2.67
2018-08-16T13:02:00.185Z,2.58
2018-08-16T13:04:29.508Z,2.58
2018-08-16T13:06:58.958Z,2.70
2018-08-16T13:09:28.390Z,2.05
2018-08-16T13:11:57.865Z,2.42
2018-08-16T13:14:27.309Z,2.72
2018-08-16T13:16:56.629Z,2.80
2018-08-16T13:19:26.076Z,2.12
2018-08-16T13:21:55.525Z,2.20
2018-08-16T13:24:24.932Z,2.05
2018-08-16T13:26:54.281Z,2.10
2018-08-16T13:29:23.677Z,2.20
2018-08-16T13:31:53.052Z,2.35
2018-08-16T13:34:22.474Z,2.42
2018-08-16T13:36:51.790Z,2.15
2018-08-16T13:39:21.141Z,2.40
2018-08-16T13:41:50.590Z,2.50
2018-08-16T13:44:19.918Z,2.50
2018-08-16T13:46:49.310Z,2.00
2018-08-16T13:49:18.729Z,2.02
2018-08-16T13:51:48.118Z,2.52
2018-08-16T13:54:17.538Z,2.50
2018-08-16T13:56:46.982Z,2.15
2018-08-16T13:59:16.442Z,2.20
2018-08-16T14:01:45.891Z,2.20
2018-08-16T14:04:15.298Z,2.22
2018-08-16T14:06:44.747Z,2.00
2018-08-16T14:09:14.262Z,2.15
2018-08-16T14:11:43.577Z,2.05
2018-08-16T14:14:13.037Z,2.00
2018-08-16T14:16:42.464Z,2.27
2018-08-16T14:19:11.888Z,2.08
2018-08-16T14:21:40.953Z,1.95
2018-08-16T14:24:10.362Z,2.05
2018-08-16T14:26:39.755Z,2.00
2018-08-16T14:29:09.138Z,2.37
2018-08-16T14:31:38.533Z,2.10
2018-08-16T14:34:07.705Z,2.02
2018-08-16T14:36:36.829Z,1.77
2018-08-16T14:39:09.321Z,1.80
2018-08-16T14:41:38.456Z,1.87
2018-08-16T14:44:07.668Z,1.90
2018-08-16T14:46:37.367Z,2.08
2018-08-16T14:49:06.541Z,1.95
2018-08-16T14:51:35.677Z,2.10
2018-08-16T14:54:04.785Z,2.00
2018-08-16T14:56:33.922Z,1.82
2018-08-16T14:59:03.105Z,1.95
2018-08-16T15:01:49.696Z,1.72
2018-08-16T15:04:18.924Z,1.80
2018-08-16T15:06:48.434Z,1.98
2018-08-16T15:09:17.827Z,1.77
2018-08-16T15:11:48.250Z,1.95
2018-08-16T15:14:17.729Z,2.05
2018-08-16T15:16:47.154Z,2.10
2018-08-16T15:19:16.569Z,1.87
2018-08-16T15:21:46.809Z,1.85
2018-08-16T15:24:18.346Z,1.87
2018-08-16T15:26:48.074Z,2.10
2018-08-16T15:29:18.341Z,1.67
2018-08-16T15:31:47.899Z,1.80
2018-08-16T15:34:17.406Z,1.90
2018-08-16T15:36:46.838Z,1.95
2018-08-16T15:39:16.250Z,1.85
2018-08-16T15:41:46.666Z,1.80
2018-08-16T15:44:16.058Z,1.70
2018-08-16T15:46:45.523Z,1.90
2018-08-16T15:49:15.009Z,1.80
2018-08-16T15:51:44.465Z,1.82
2018-08-16T15:54:13.817Z,1.92
2018-08-16T15:56:43.210Z,1.70
2018-08-16T15:59:12.956Z,1.82
2018-08-16T16:01:46.099Z,1.80
2018-08-16T16:04:15.509Z,1.80
2018-08-16T16:06:44.974Z,1.90
2018-08-16T16:09:14.455Z,1.60
2018-08-16T16:11:47.012Z,1.72
2018-08-16T16:14:16.534Z,1.90
2018-08-16T16:16:45.624Z,1.90
2018-08-16T16:19:15.032Z,1.62
2018-08-16T16:22:01.569Z,1.60
2018-08-16T16:24:31.041Z,1.80
2018-08-16T16:27:00.587Z,1.60
2018-08-16T16:29:30.055Z,1.77
2018-08-16T16:32:03.741Z,1.82
2018-08-16T16:34:33.173Z,2.00
2018-08-16T16:37:02.616Z,1.60
2018-08-16T16:39:32.068Z,1.95
2018-08-16T16:42:01.533Z,1.82
2018-08-16T16:44:30.955Z,1.72
2018-08-16T16:47:00.365Z,1.80
2018-08-16T16:49:29.726Z,2.20
2018-08-16T16:52:16.861Z,1.62
2018-08-16T16:54:45.965Z,1.90
2018-08-16T16:57:16.061Z,2.02
2018-08-16T16:59:45.309Z,1.80
2018-08-16T17:02:21.911Z,2.30
2018-08-16T17:04:51.286Z,2.08
2018-08-16T17:07:20.705Z,1.90
2018-08-16T17:09:50.009Z,1.98
2018-08-16T17:12:19.069Z,2.30
2018-08-16T17:14:48.470Z,2.40
2018-08-16T17:17:18.032Z,2.25
2018-08-16T17:19:47.571Z,1.95
2018-08-16T17:22:17.093Z,2.05
2018-08-16T17:24:46.638Z,2.47
2018-08-16T17:27:15.785Z,1.95
2018-08-16T17:29:45.175Z,2.00
2018-08-16T17:32:15.672Z,2.22
2018-08-16T17:34:45.145Z,2.35
2018-08-16T17:37:14.546Z,2.65
2018-08-16T17:39:43.932Z,2.20
2018-08-16T17:42:30.022Z,1.95
2018-08-16T17:44:59.442Z,2.42
2018-08-16T17:47:28.886Z,2.05
2018-08-16T17:49:58.322Z,2.50
2018-08-16T17:52:29.745Z,2.20
2018-08-16T17:54:59.152Z,2.27
2018-08-16T17:57:28.541Z,2.22
2018-08-16T17:59:57.933Z,2.35
2018-08-16T18:02:28.324Z,2.10
2018-08-16T18:04:57.725Z,2.42
2018-08-16T18:07:27.092Z,2.60
2018-08-16T18:09:56.510Z,2.67
2018-08-16T18:12:26.223Z,2.62
2018-08-16T18:14:55.614Z,2.17
2018-08-16T18:17:24.933Z,2.67
2018-08-16T18:19:54.318Z,2.22
2018-08-16T18:22:34.594Z,3.00
2018-08-16T18:25:03.906Z,2.90
2018-08-16T18:27:33.069Z,2.55
2018-08-16T18:30:02.434Z,2.45
2018-08-16T18:32:31.954Z,2.20
2018-08-16T18:35:01.313Z,2.45
2018-08-16T18:37:30.724Z,3.37
2018-08-16T18:39:59.877Z,2.30
2018-08-16T18:42:56.694Z,2.47
2018-08-16T18:45:25.789Z,2.50
2018-08-16T18:47:55.214Z,2.42
2018-08-16T18:50:26.602Z,2.80
2018-08-16T18:52:56.165Z,2.65
2018-08-16T18:55:25.585Z,2.95
2018-08-16T18:57:54.961Z,3.02
2018-08-16T19:00:24.403Z,2.65
2018-08-16T19:02:53.860Z,2.98
2018-08-16T19:05:23.382Z,3.20
2018-08-16T19:07:52.786Z,2.85
2018-08-16T19:10:21.998Z,2.90
2018-08-16T19:12:51.096Z,3.15
2018-08-16T19:15:20.219Z,2.75
2018-08-16T19:17:49.368Z,2.92
2018-08-16T19:20:20.484Z,3.23
2018-08-16T19:22:49.793Z,2.83
2018-08-16T19:25:19.212Z,2.90
2018-08-16T19:27:48.626Z,2.37
2018-08-16T19:30:18.013Z,2.72
2018-08-16T19:32:47.349Z,2.77
2018-08-16T19:35:16.737Z,2.53
2018-08-16T19:37:46.118Z,3.00
2018-08-16T19:40:15.461Z,2.90
2018-08-16T19:42:44.845Z,2.50
2018-08-16T19:45:14.537Z,3.40
2018-08-16T19:47:43.912Z,2.80
2018-08-16T19:50:13.315Z,2.83
2018-08-16T19:52:42.738Z,2.80
2018-08-16T19:55:12.198Z,2.90
2018-08-16T19:57:41.617Z,3.60
2018-08-16T20:00:11.289Z,3.47
2018-08-16T20:02:41.581Z,3.27
2018-08-16T20:05:10.969Z,3.07
2018-08-16T20:07:40.353Z,3.50
2018-08-16T20:10:10.521Z,3.27
2018-08-16T20:12:39.886Z,3.27
2018-08-16T20:15:09.850Z,3.30
2018-08-16T20:17:39.350Z,3.40
2018-08-16T20:20:09.212Z,3.20
2018-08-16T20:22:38.575Z,3.50
2018-08-16T20:25:07.959Z,3.10
2018-08-16T20:27:37.374Z,3.53
2018-08-16T20:30:07.189Z,3.20
2018-08-16T20:32:36.601Z,3.13
2018-08-16T20:35:06.005Z,2.90
2018-08-16T20:37:35.418Z,2.87
2018-08-16T20:40:05.593Z,3.33
2018-08-16T20:42:42.177Z,3.17
2018-08-16T20:45:11.517Z,3.57
2018-08-16T20:47:41.022Z,4.23
2018-08-16T20:50:10.474Z,4.13
2018-08-16T20:52:39.501Z,3.40
2018-08-16T20:55:08.933Z,3.70
2018-08-16T20:57:38.373Z,3.80
2018-08-16T21:00:10.030Z,3.37
2018-08-16T21:02:39.330Z,3.80
2018-08-16T21:05:09.270Z,3.80
2018-08-16T21:07:38.480Z,4.30
2018-08-16T21:10:09.143Z,3.67
2018-08-16T21:12:38.258Z,3.67
2018-08-16T21:15:08.032Z,3.60
2018-08-16T21:17:37.141Z,3.60
2018-08-16T21:20:06.412Z,3.40
2018-08-16T21:22:43.029Z,3.37
2018-08-16T21:25:12.200Z,3.20
2018-08-16T21:27:41.378Z,3.50
2018-08-16T21:30:10.440Z,3.43
2018-08-16T21:32:39.525Z,3.60
2018-08-16T21:35:08.741Z,3.80
2018-08-16T21:37:37.912Z,3.90
2018-08-16T21:40:07.552Z,3.60
2018-08-16T21:42:36.669Z,3.40
2018-08-16T21:45:05.892Z,3.40
2018-08-16T21:47:34.997Z,3.93
2018-08-16T21:50:04.585Z,3.50
2018-08-16T21:52:34.713Z,3.57
2018-08-16T21:55:03.917Z,3.87
2018-08-16T21:57:33.029Z,3.97
2018-08-16T22:00:01.873Z,4.93
2018-08-16T22:02:32.046Z,8.87
2018-08-16T22:05:01.453Z,10.30
2018-08-16T22:08:11.729Z,9.67
2018-08-16T22:10:46.205Z,5.77
2018-08-16T22:13:15.809Z,5.57
2018-08-16T22:15:45.168Z,6.17
2018-08-16T22:18:14.609Z,5.17
2018-08-16T22:20:43.966Z,4.67
2018-08-16T22:23:13.324Z,4.93
2018-08-16T22:25:42.628Z,4.40
2018-08-16T22:28:11.976Z,4.20
2018-08-16T22:30:45.301Z,3.90
2018-08-16T22:33:14.643Z,4.77
2018-08-16T22:35:44.018Z,4.13
2018-08-16T22:38:14.274Z,4.60
2018-08-16T22:40:52.805Z,3.90
2018-08-16T22:43:22.116Z,4.10
2018-08-16T22:45:51.473Z,3.83
2018-08-16T22:48:20.914Z,3.80
2018-08-16T22:50:53.677Z,3.63
2018-08-16T22:53:23.038Z,4.17
2018-08-16T22:55:52.473Z,4.10
2018-08-16T22:58:21.857Z,4.30
2018-08-16T23:00:51.359Z,4.00
2018-08-16T23:03:20.781Z,3.93
2018-08-16T23:05:50.361Z,4.07
2018-08-16T23:08:19.726Z,4.60
2018-08-16T23:11:03.397Z,4.00
2018-08-16T23:13:32.755Z,4.13
2018-08-16T23:16:02.145Z,3.83
2018-08-16T23:18:31.454Z,4.30
2018-08-16T23:21:08.657Z,3.83
2018-08-16T23:23:38.020Z,4.40
2018-08-16T23:26:07.477Z,4.27
2018-08-16T23:28:36.913Z,4.80
2018-08-16T23:31:09.453Z,4.60
2018-08-16T23:33:38.858Z,4.03
2018-08-16T23:36:08.309Z,4.10
2018-08-16T23:38:37.809Z,4.37
2018-08-16T23:41:07.350Z,4.40
2018-08-16T23:43:36.769Z,4.30
2018-08-16T23:46:06.247Z,3.77
2018-08-16T23:48:35.653Z,4.37
2018-08-16T23:51:07.161Z,4.00
2018-08-16T23:53:36.577Z,4.63
2018-08-16T23:56:06.174Z,4.30
2018-08-16T23:58:35.563Z,4.00
